AAL15 KLAX-KPHX
Flight info
| Callsign | AAL15 |
|---|---|
| Flight time | N/A |
| Altitude | 31000 |
| Route | DOTSS2 CNERY BLH HYDRR1 |
| Aircraft | B738/M-SDE2E3FGHIRWXY/LB1 |
Departure
| Time | 2026-05-05 22:19 |
|---|---|
| Airport | Los Angeles International Airport (KLAX) |
Arrival
| Time | N/A |
|---|---|
| Airport | Phoenix Sky Harbor International Airport (KPHX) |
| Time | Latitude | Longitude | Altitude | Speed | Heading |
|---|---|---|---|---|---|
| 2026-05-05 22:14 | 33.93962 | -118.40604 | 126 ft | 0 kts | 322° |
| 2026-05-05 22:15 | 33.93964 | -118.40606 | 126 ft | 0 kts | 314° |
| 2026-05-05 22:15 | 33.93962 | -118.40616 | 126 ft | 5 kts | 244° |
| 2026-05-05 22:16 | 33.93899 | -118.40649 | 127 ft | 10 kts | 171° |
| 2026-05-05 22:16 | 33.93838 | -118.40582 | 126 ft | 14 kts | 116° |
| 2026-05-05 22:16 | 33.93839 | -118.40403 | 125 ft | 29 kts | 84° |
| 2026-05-05 22:16 | 33.93866 | -118.40125 | 121 ft | 37 kts | 83° |
| 2026-05-05 22:17 | 33.93900 | -118.39804 | 116 ft | 39 kts | 83° |
| 2026-05-05 22:17 | 33.93934 | -118.39475 | 112 ft | 40 kts | 82° |
| 2026-05-05 22:17 | 33.93973 | -118.39130 | 109 ft | 42 kts | 83° |
| 2026-05-05 22:17 | 33.93998 | -118.38875 | 107 ft | 42 kts | 85° |
| 2026-05-05 22:18 | 33.94014 | -118.38718 | 107 ft | 43 kts | 83° |
| 2026-05-05 22:18 | 33.94049 | -118.38354 | 105 ft | 44 kts | 84° |
| 2026-05-05 22:18 | 33.94064 | -118.38032 | 104 ft | 21 kts | 128° |
| 2026-05-05 22:18 | 33.93975 | -118.38088 | 104 ft | 43 kts | 262° |
| 2026-05-05 22:19 | 33.93877 | -118.38985 | 109 ft | 167 kts | 263° |
| 2026-05-05 22:19 | 33.93741 | -118.40579 | 931 ft | 196 kts | 263° |
| 2026-05-05 22:19 | 33.93665 | -118.42046 | 1574 ft | 189 kts | 273° |
| 2026-05-05 22:19 | 33.94137 | -118.43572 | 2372 ft | 206 kts | 306° |
| 2026-05-05 22:20 | 33.95390 | -118.44630 | 2849 ft | 243 kts | 336° |
| 2026-05-05 22:20 | 33.97139 | -118.45216 | 3274 ft | 276 kts | 349° |
| 2026-05-05 22:20 | 33.99197 | -118.45499 | 3315 ft | 323 kts | 353° |
| 2026-05-05 22:20 | 34.01554 | -118.45728 | 3692 ft | 351 kts | 356° |
| 2026-05-05 22:21 | 34.04053 | -118.45837 | 4349 ft | 364 kts | 358° |
| 2026-05-05 22:21 | 34.06405 | -118.46332 | 5165 ft | 326 kts | 341° |
| 2026-05-05 22:21 | 34.08275 | -118.47652 | 5513 ft | 296 kts | 311° |
| 2026-05-05 22:21 | 34.09230 | -118.49699 | 5774 ft | 276 kts | 290° |
| 2026-05-05 22:22 | 34.09498 | -118.51966 | 5719 ft | 262 kts | 276° |
| 2026-05-05 22:22 | 34.09701 | -118.54086 | 5487 ft | 257 kts | 281° |
| 2026-05-05 22:22 | 34.09406 | -118.56047 | 5244 ft | 251 kts | 217° |
| 2026-05-05 22:22 | 34.07774 | -118.57172 | 4427 ft | 292 kts | 206° |
| 2026-05-05 22:23 | 34.05698 | -118.58013 | 3451 ft | 331 kts | 194° |